createdAt,value
2018-05-13T00:01:57.540Z,76.04
2018-05-13T00:04:25.010Z,76.18
2018-05-13T00:06:52.453Z,76.16
2018-05-13T00:09:19.882Z,76.14
2018-05-13T00:11:48.297Z,76.96
2018-05-13T00:17:07.926Z,76.97
2018-05-13T00:35:07.990Z,77.23
2018-05-13T00:37:39.998Z,77.38
2018-05-13T00:40:10.163Z,77.34
2018-05-13T00:42:39.631Z,78.36
2018-05-13T00:45:08.182Z,78.46
2018-05-13T00:47:39.421Z,78.12
2018-05-13T00:50:06.857Z,77.94
2018-05-13T00:52:34.306Z,77.75
2018-05-13T00:55:01.755Z,77.70
2018-05-13T00:57:29.197Z,78.31
2018-05-13T00:59:56.619Z,77.47
2018-05-13T01:02:24.089Z,77.60
2018-05-13T01:04:51.516Z,77.71
2018-05-13T01:07:18.925Z,77.35
2018-05-13T01:09:46.378Z,77.13
2018-05-13T01:12:13.810Z,76.14
2018-05-13T01:14:41.256Z,75.92
2018-05-13T01:17:08.678Z,76.04
2018-05-13T01:19:36.132Z,75.35
2018-05-13T01:22:03.574Z,75.23
2018-05-13T01:24:31.026Z,75.77
2018-05-13T01:27:00.443Z,75.46
2018-05-13T01:29:27.893Z,75.54
2018-05-13T01:31:55.316Z,75.06
2018-05-13T01:34:22.759Z,75.31
2018-05-13T01:36:50.186Z,76.22
2018-05-13T01:39:18.573Z,76.79
2018-05-13T01:41:46.011Z,77.37
2018-05-13T01:44:13.462Z,77.32
2018-05-13T01:46:40.905Z,76.91
2018-05-13T01:49:09.325Z,76.43
2018-05-13T01:51:36.809Z,77.20
2018-05-13T01:54:04.268Z,77.05
2018-05-13T01:56:31.711Z,77.38
2018-05-13T01:58:59.145Z,77.43
2018-05-13T02:01:26.613Z,77.84
2018-05-13T02:03:54.030Z,78.51
2018-05-13T02:06:23.478Z,78.22
2018-05-13T02:08:50.897Z,78.44
2018-05-13T02:11:18.352Z,78.38
2018-05-13T02:13:45.772Z,78.76
2018-05-13T02:16:13.222Z,78.65
2018-05-13T02:18:40.640Z,78.12
2018-05-13T02:21:08.100Z,78.35
2018-05-13T02:23:35.517Z,79.30
2018-05-13T02:26:02.961Z,79.22
2018-05-13T02:28:30.384Z,78.53
2018-05-13T02:30:57.842Z,78.45
2018-05-13T02:33:25.296Z,78.68
2018-05-13T02:35:52.717Z,78.22
2018-05-13T02:38:20.173Z,78.85
2018-05-13T02:40:47.598Z,79.39
2018-05-13T02:43:15.042Z,78.83
2018-05-13T02:45:42.466Z,79.12
2018-05-13T02:48:09.924Z,79.40
2018-05-13T02:50:43.945Z,79.10
2018-05-13T02:53:11.392Z,78.71
2018-05-13T02:55:38.810Z,79.17
2018-05-13T02:58:07.154Z,79.51
2018-05-13T03:00:34.584Z,79.28
2018-05-13T03:03:02.026Z,78.45
2018-05-13T03:05:29.449Z,79.15
2018-05-13T03:07:56.891Z,79.64
2018-05-13T03:10:24.308Z,79.60
2018-05-13T03:12:51.772Z,79.21
2018-05-13T03:15:19.568Z,79.25
2018-05-13T03:17:47.022Z,78.99
2018-05-13T03:20:14.450Z,78.28
2018-05-13T03:22:41.886Z,77.99
2018-05-13T03:25:09.306Z,77.52
2018-05-13T03:27:36.742Z,77.56
2018-05-13T03:30:04.198Z,77.78
2018-05-13T03:32:31.633Z,77.55
2018-05-13T03:34:59.101Z,77.97
2018-05-13T03:37:27.521Z,78.05
2018-05-13T03:39:55.926Z,78.24
2018-05-13T03:42:23.357Z,78.25
2018-05-13T03:44:50.785Z,77.67
2018-05-13T03:47:18.198Z,77.30
2018-05-13T03:49:45.649Z,77.55
2018-05-13T03:52:13.062Z,76.99
2018-05-13T03:54:44.797Z,76.39
2018-05-13T03:57:14.161Z,76.42
2018-05-13T03:59:42.545Z,75.96
2018-05-13T04:02:15.201Z,76.15
2018-05-13T04:04:42.685Z,75.69
2018-05-13T04:07:10.112Z,75.07
2018-05-13T04:09:49.284Z,74.53
2018-05-13T04:12:28.524Z,74.37
2018-05-13T04:17:58.594Z,75.34
2018-05-13T04:20:26.037Z,75.54
2018-05-13T04:22:53.458Z,75.57
2018-05-13T04:25:20.889Z,75.55
2018-05-13T04:27:48.329Z,75.35
2018-05-13T04:30:15.755Z,75.49
2018-05-13T04:32:43.210Z,74.48
2018-05-13T04:35:10.631Z,74.06
2018-05-13T04:37:38.084Z,74.86
2018-05-13T04:40:05.493Z,74.58
2018-05-13T04:42:32.948Z,74.46
2018-05-13T04:45:00.358Z,73.92
2018-05-13T04:47:27.808Z,73.17
2018-05-13T04:49:55.225Z,73.47
2018-05-13T04:52:22.751Z,73.72
2018-05-13T04:54:50.205Z,73.25
2018-05-13T04:57:17.662Z,73.46
2018-05-13T04:59:45.073Z,73.25
2018-05-13T05:02:12.496Z,72.69
2018-05-13T05:04:39.952Z,72.32
2018-05-13T05:07:07.370Z,72.79
2018-05-13T05:09:34.818Z,71.91
2018-05-13T05:12:02.238Z,70.87
2018-05-13T05:14:29.689Z,70.32
2018-05-13T05:16:57.470Z,70.00
2018-05-13T05:19:24.915Z,70.64
2018-05-13T05:21:54.347Z,71.13
2018-05-13T05:24:22.745Z,70.39
2018-05-13T05:26:56.585Z,69.36
2018-05-13T05:29:24.034Z,70.07
2018-05-13T05:31:51.451Z,70.05
2018-05-13T05:34:18.898Z,69.69
2018-05-13T05:36:46.321Z,70.13
2018-05-13T05:39:13.766Z,69.41
2018-05-13T05:41:41.183Z,69.65
2018-05-13T05:44:08.636Z,69.16
2018-05-13T05:46:37.012Z,68.54
2018-05-13T05:49:04.466Z,68.94
2018-05-13T05:51:31.891Z,68.42
2018-05-13T05:54:01.673Z,68.71
2018-05-13T05:56:30.097Z,68.36
2018-05-13T05:58:57.533Z,68.38
2018-05-13T06:01:24.990Z,68.08
2018-05-13T06:03:52.414Z,68.07
2018-05-13T06:06:20.775Z,68.34
2018-05-13T06:08:48.201Z,68.20
2018-05-13T06:11:15.661Z,66.86
2018-05-13T06:13:44.038Z,66.78
2018-05-13T06:16:11.482Z,67.39
2018-05-13T06:18:38.910Z,68.11
2018-05-13T06:21:06.358Z,67.57
2018-05-13T06:23:33.784Z,67.37
2018-05-13T06:26:01.265Z,67.25
2018-05-13T06:28:28.697Z,67.56
2018-05-13T06:30:56.208Z,68.69
2018-05-13T06:33:23.630Z,68.29
2018-05-13T06:35:51.083Z,68.02
2018-05-13T06:38:18.505Z,68.09
2018-05-13T06:40:49.802Z,67.68
2018-05-13T06:43:18.248Z,68.38
2018-05-13T06:45:45.733Z,67.92
2018-05-13T06:48:13.155Z,66.98
2018-05-13T06:50:40.579Z,68.24
2018-05-13T06:53:08.022Z,67.77
2018-05-13T06:55:35.448Z,66.75
2018-05-13T06:58:02.889Z,67.66
2018-05-13T07:00:30.323Z,68.15
2018-05-13T07:02:57.770Z,67.59
2018-05-13T07:05:25.238Z,66.84
2018-05-13T07:07:52.685Z,67.26
2018-05-13T07:10:20.104Z,68.63
2018-05-13T07:12:47.546Z,67.94
2018-05-13T07:15:14.978Z,67.44
2018-05-13T07:17:42.425Z,65.66
2018-05-13T07:20:09.853Z,64.96
2018-05-13T07:22:39.311Z,66.38
2018-05-13T07:25:06.736Z,66.17
2018-05-13T07:27:35.150Z,65.40
2018-05-13T07:30:02.572Z,64.21
2018-05-13T07:32:30.023Z,62.37
2018-05-13T07:34:57.889Z,61.34
2018-05-13T07:37:25.365Z,61.78
2018-05-13T07:39:52.786Z,59.77
2018-05-13T07:42:20.210Z,59.73
2018-05-13T07:44:49.582Z,62.70
2018-05-13T07:47:17.014Z,64.35
2018-05-13T07:49:44.466Z,64.06
2018-05-13T07:52:11.882Z,63.42
2018-05-13T07:54:39.329Z,62.95
2018-05-13T07:57:09.910Z,61.78
2018-05-13T07:59:37.371Z,59.90
2018-05-13T08:02:04.793Z,61.09
2018-05-13T08:04:32.242Z,61.23
2018-05-13T08:06:59.706Z,61.02
2018-05-13T08:09:28.165Z,61.16
2018-05-13T08:11:55.590Z,62.35
2018-05-13T08:14:25.026Z,65.75
2018-05-13T08:16:52.449Z,63.65
2018-05-13T08:19:19.889Z,62.31
2018-05-13T08:21:48.281Z,62.33
2018-05-13T08:24:17.723Z,62.46
2018-05-13T08:26:45.141Z,63.44
2018-05-13T08:29:12.565Z,63.66
2018-05-13T08:31:40.011Z,63.28
2018-05-13T08:34:07.430Z,62.35
2018-05-13T08:36:34.881Z,59.42
2018-05-13T08:39:06.639Z,59.37
2018-05-13T08:41:36.047Z,59.15
2018-05-13T08:44:03.490Z,59.33
2018-05-13T08:46:30.959Z,58.90
2018-05-13T08:48:58.398Z,58.11
2018-05-13T08:51:25.866Z,58.28
2018-05-13T08:53:53.313Z,57.67
2018-05-13T08:56:22.702Z,58.50
2018-05-13T08:58:50.122Z,57.54
2018-05-13T09:01:18.554Z,57.25
2018-05-13T09:03:45.977Z,58.26
2018-05-13T09:06:13.455Z,56.46
2018-05-13T09:08:41.830Z,55.50
2018-05-13T09:11:09.305Z,55.44
2018-05-13T09:13:36.754Z,57.28
2018-05-13T09:16:05.150Z,56.62
2018-05-13T09:18:34.565Z,57.16
2018-05-13T09:21:01.998Z,56.24
2018-05-13T09:23:29.446Z,54.64
2018-05-13T09:25:56.869Z,54.37
2018-05-13T09:28:24.349Z,56.20
2018-05-13T09:30:51.765Z,56.43
2018-05-13T09:33:19.213Z,56.85
2018-05-13T09:35:46.645Z,57.53
2018-05-13T09:38:14.108Z,57.38
2018-05-13T09:40:43.484Z,57.21
2018-05-13T09:43:11.881Z,56.93
2018-05-13T09:45:44.174Z,55.98
2018-05-13T09:48:15.709Z,56.88
2018-05-13T09:50:44.085Z,58.13
2018-05-13T09:53:12.468Z,58.59
2018-05-13T09:55:44.419Z,59.27
2018-05-13T09:58:11.885Z,60.69
2018-05-13T10:00:39.317Z,59.82
2018-05-13T10:03:10.272Z,58.65
2018-05-13T10:05:49.367Z,58.10
2018-05-13T10:08:19.258Z,59.43
2018-05-13T10:10:47.309Z,58.38
2018-05-13T10:13:17.616Z,59.00
2018-05-13T10:15:47.202Z,60.06
2018-05-13T10:18:16.703Z,58.46
2018-05-13T10:23:50.970Z,57.64
2018-05-13T10:26:18.425Z,58.16
2018-05-13T10:28:49.675Z,59.15
2018-05-13T10:31:17.130Z,58.29
2018-05-13T10:33:45.469Z,60.64
2018-05-13T10:36:12.927Z,59.92
2018-05-13T10:38:43.773Z,59.14
2018-05-13T10:41:25.251Z,58.57
2018-05-13T10:43:54.693Z,59.42
2018-05-13T10:46:22.149Z,60.21
2018-05-13T10:48:49.582Z,59.96
2018-05-13T10:51:17.026Z,58.27
2018-05-13T10:53:44.441Z,58.46
2018-05-13T10:56:11.906Z,58.23
2018-05-13T10:58:39.350Z,58.33
2018-05-13T11:01:06.769Z,59.57
2018-05-13T11:03:35.081Z,59.64
2018-05-13T11:06:04.626Z,59.30
2018-05-13T11:08:32.949Z,59.25
2018-05-13T11:11:00.357Z,58.56
2018-05-13T11:13:28.770Z,58.00
2018-05-13T11:15:56.193Z,58.94
2018-05-13T11:18:23.669Z,58.66
2018-05-13T11:20:53.073Z,57.57
2018-05-13T11:23:20.541Z,56.11
2018-05-13T11:25:47.966Z,57.50
2018-05-13T11:28:15.406Z,56.15
2018-05-13T11:30:42.826Z,56.79
2018-05-13T11:33:11.197Z,57.63
2018-05-13T11:35:38.617Z,55.09
2018-05-13T11:38:06.037Z,54.34
2018-05-13T11:40:34.470Z,54.12
2018-05-13T11:43:03.850Z,55.34
2018-05-13T11:45:31.302Z,54.46
2018-05-13T11:47:59.685Z,55.37
2018-05-13T11:50:27.138Z,53.33
2018-05-13T11:52:54.557Z,53.54
2018-05-13T11:55:22.014Z,53.17
2018-05-13T11:57:49.437Z,51.91
2018-05-13T12:00:16.893Z,52.93
2018-05-13T12:02:44.310Z,52.31
2018-05-13T12:05:11.753Z,52.19
2018-05-13T12:07:39.174Z,53.57
2018-05-13T12:10:07.566Z,51.61
2018-05-13T12:12:34.991Z,51.91
2018-05-13T12:15:02.458Z,51.45
2018-05-13T12:17:29.875Z,50.39
2018-05-13T12:19:57.341Z,51.64
2018-05-13T12:22:24.773Z,50.79
2018-05-13T12:24:53.190Z,50.50
2018-05-13T12:27:20.639Z,50.77
2018-05-13T12:29:48.068Z,50.21
2018-05-13T12:32:15.520Z,49.92
2018-05-13T12:34:42.939Z,49.45
2018-05-13T12:37:11.317Z,47.94
2018-05-13T12:39:38.737Z,48.45
2018-05-13T12:42:06.229Z,47.05
2018-05-13T12:44:33.649Z,47.50
2018-05-13T12:47:01.946Z,48.44
2018-05-13T12:49:29.370Z,48.83
2018-05-13T12:51:56.813Z,47.94
2018-05-13T12:54:24.235Z,46.99
2018-05-13T12:56:51.690Z,47.36
2018-05-13T12:59:19.117Z,45.82
2018-05-13T13:01:47.517Z,46.28
2018-05-13T13:04:14.930Z,47.06
2018-05-13T13:06:43.036Z,47.23
2018-05-13T13:09:10.497Z,47.73
2018-05-13T13:11:37.913Z,46.81
2018-05-13T13:14:05.378Z,46.87
2018-05-13T13:16:32.801Z,46.83
2018-05-13T13:19:00.256Z,45.56
2018-05-13T13:21:27.678Z,47.11
2018-05-13T13:23:55.144Z,46.58
2018-05-13T13:26:22.590Z,46.25
2018-05-13T13:28:50.046Z,44.88
2018-05-13T13:31:17.474Z,44.33
2018-05-13T13:33:45.230Z,43.50
2018-05-13T13:36:12.650Z,40.69
2018-05-13T13:38:40.093Z,38.55
2018-05-13T13:41:07.514Z,37.87
2018-05-13T13:43:34.966Z,36.93
2018-05-13T13:46:02.394Z,33.99
2018-05-13T13:48:29.829Z,32.41
2018-05-13T13:50:57.254Z,30.39
2018-05-13T13:53:24.727Z,30.19
2018-05-13T13:55:52.125Z,29.07
2018-05-13T13:58:19.565Z,28.24
2018-05-13T14:00:46.981Z,27.29
2018-05-13T14:03:14.416Z,27.80
2018-05-13T14:05:41.894Z,27.61
2018-05-13T14:08:09.337Z,26.09
2018-05-13T14:10:36.782Z,25.22
2018-05-13T14:13:07.721Z,23.35
2018-05-13T14:15:37.152Z,22.94
2018-05-13T14:18:08.183Z,24.27
2018-05-13T14:20:36.684Z,23.32
2018-05-13T14:23:04.013Z,22.21
2018-05-13T14:25:31.465Z,21.53
2018-05-13T14:27:58.877Z,21.96
2018-05-13T14:30:26.322Z,18.95
2018-05-13T14:32:53.817Z,17.18
2018-05-13T14:35:21.205Z,17.03
2018-05-13T14:37:48.656Z,16.76
2018-05-13T14:40:17.056Z,17.90
2018-05-13T14:42:44.486Z,19.07
2018-05-13T14:45:11.956Z,17.35
2018-05-13T14:47:39.428Z,16.24
2018-05-13T14:50:07.814Z,16.47
2018-05-13T14:52:35.271Z,16.39
2018-05-13T14:55:02.671Z,15.03
2018-05-13T14:57:30.115Z,15.37
2018-05-13T14:59:57.545Z,13.75
2018-05-13T15:02:24.985Z,14.20
2018-05-13T15:04:52.469Z,12.13
2018-05-13T15:07:30.722Z,14.49
2018-05-13T15:09:58.129Z,17.69
2018-05-13T15:12:26.571Z,16.28
2018-05-13T15:14:53.988Z,17.54
2018-05-13T15:17:21.434Z,15.46
2018-05-13T15:19:48.849Z,15.84
2018-05-13T15:22:17.191Z,14.50
2018-05-13T15:24:44.605Z,14.21
2018-05-13T15:27:12.060Z,13.02
2018-05-13T15:29:39.498Z,13.03
2018-05-13T15:32:06.913Z,13.96
2018-05-13T15:34:34.349Z,14.58
2018-05-13T15:37:01.763Z,16.16
2018-05-13T15:39:29.201Z,14.81
2018-05-13T15:41:56.617Z,14.97
2018-05-13T15:44:30.742Z,16.68
2018-05-13T15:46:59.138Z,14.63
2018-05-13T15:49:28.470Z,12.07
2018-05-13T15:51:55.883Z,13.55
2018-05-13T15:54:23.343Z,13.70
2018-05-13T15:56:51.668Z,17.15
2018-05-13T15:59:19.121Z,17.43
2018-05-13T16:01:48.475Z,17.60
2018-05-13T16:04:15.929Z,15.38
2018-05-13T16:06:43.355Z,16.19
2018-05-13T16:09:10.814Z,16.12
2018-05-13T16:11:40.140Z,16.98
2018-05-13T16:14:07.558Z,16.77
2018-05-13T16:16:35.910Z,18.27
2018-05-13T16:19:03.339Z,19.43
2018-05-13T16:21:30.786Z,17.10
2018-05-13T16:23:59.166Z,19.52
2018-05-13T16:26:26.620Z,18.48
2018-05-13T16:28:54.038Z,20.27
2018-05-13T16:31:22.405Z,16.27
2018-05-13T16:33:49.842Z,16.39
2018-05-13T16:36:17.282Z,17.47
2018-05-13T16:38:44.706Z,17.85
2018-05-13T16:41:12.142Z,18.30
2018-05-13T16:43:39.565Z,16.63
2018-05-13T16:46:07.000Z,16.53
2018-05-13T16:48:34.410Z,17.71
2018-05-13T16:51:01.862Z,18.22
2018-05-13T16:53:29.282Z,17.15
2018-05-13T16:55:56.721Z,17.29
2018-05-13T16:58:24.133Z,18.86
2018-05-13T17:00:51.568Z,19.29
2018-05-13T17:03:19.929Z,18.38
2018-05-13T17:05:47.365Z,19.51
2018-05-13T17:08:14.794Z,19.01
2018-05-13T17:10:44.127Z,20.83
2018-05-13T17:13:11.569Z,21.59
2018-05-13T17:15:39.036Z,26.56
2018-05-13T17:18:06.432Z,33.64
2018-05-13T17:20:33.839Z,35.21
2018-05-13T17:23:01.269Z,36.61
2018-05-13T17:25:28.689Z,37.56
2018-05-13T17:27:56.130Z,39.09
2018-05-13T17:30:24.445Z,39.51
2018-05-13T17:32:51.889Z,40.13
2018-05-13T17:35:19.302Z,40.53
2018-05-13T17:37:46.750Z,40.74
2018-05-13T17:40:14.157Z,40.74
2018-05-13T17:42:41.593Z,41.57
2018-05-13T17:45:09.006Z,42.12
2018-05-13T17:47:37.436Z,42.48
2018-05-13T17:50:04.868Z,42.20
2018-05-13T17:52:32.356Z,42.53
2018-05-13T17:54:59.776Z,42.51
2018-05-13T17:57:29.112Z,42.61
2018-05-13T17:59:57.534Z,43.12
2018-05-13T18:02:24.962Z,42.87
2018-05-13T18:04:52.431Z,42.58
2018-05-13T18:07:19.805Z,42.97
2018-05-13T18:09:47.246Z,43.13
2018-05-13T18:12:18.213Z,43.45
2018-05-13T18:14:45.661Z,43.94
2018-05-13T18:17:13.086Z,43.94
2018-05-13T18:19:40.526Z,44.04
2018-05-13T18:22:07.951Z,43.96
2018-05-13T18:24:35.406Z,44.47
2018-05-13T18:27:03.794Z,44.36
2018-05-13T18:29:32.322Z,44.76
2018-05-13T18:32:01.325Z,44.38
2018-05-13T18:34:28.858Z,44.98
2018-05-13T18:37:19.374Z,45.09
2018-05-13T18:39:55.012Z,44.87
2018-05-13T18:42:30.120Z,45.40
2018-05-13T18:44:59.539Z,45.92
2018-05-13T18:47:27.367Z,45.51
2018-05-13T18:49:54.874Z,45.62
2018-05-13T18:52:22.282Z,46.00
2018-05-13T18:54:49.716Z,46.65
2018-05-13T18:57:17.162Z,47.15
2018-05-13T18:59:51.330Z,47.08
2018-05-13T19:02:22.129Z,47.07
2018-05-13T19:04:50.526Z,47.20
2018-05-13T19:07:19.278Z,47.97
2018-05-13T19:09:46.690Z,47.84
2018-05-13T19:12:14.174Z,48.64
2018-05-13T19:14:42.511Z,49.09
2018-05-13T19:17:10.910Z,48.82
2018-05-13T19:19:38.329Z,49.33
2018-05-13T19:22:26.832Z,49.42
2018-05-13T19:24:55.191Z,49.76
2018-05-13T19:27:24.622Z,49.98
2018-05-13T19:29:52.049Z,50.27
2018-05-13T19:32:20.438Z,50.51
2018-05-13T19:34:47.862Z,50.35
2018-05-13T19:37:15.726Z,50.82
2018-05-13T19:39:43.134Z,50.96
2018-05-13T19:42:14.617Z,51.00
2018-05-13T19:44:44.795Z,51.56
2018-05-13T19:47:14.630Z,51.33
2018-05-13T19:49:43.102Z,51.49
2018-05-13T19:52:10.645Z,51.56
2018-05-13T19:54:40.039Z,51.56
2018-05-13T19:57:08.611Z,51.46
2018-05-13T19:59:37.006Z,51.70
2018-05-13T20:02:04.436Z,51.49
2018-05-13T20:04:31.923Z,51.66
2018-05-13T20:06:59.355Z,51.72
2018-05-13T20:09:26.809Z,52.60
2018-05-13T20:11:54.241Z,52.91
2018-05-13T20:14:21.683Z,52.99
2018-05-13T20:16:49.098Z,52.71
2018-05-13T20:19:16.551Z,52.36
2018-05-13T20:21:44.027Z,53.17
2018-05-13T20:24:11.481Z,53.26
2018-05-13T20:26:43.618Z,53.95
2018-05-13T20:29:12.056Z,54.92
2018-05-13T20:31:39.476Z,54.45
2018-05-13T20:34:06.932Z,54.66
2018-05-13T20:36:34.450Z,54.72
2018-05-13T20:39:01.889Z,55.40
2018-05-13T20:41:29.315Z,56.08
2018-05-13T20:43:56.755Z,56.21
2018-05-13T20:46:25.099Z,56.53
2018-05-13T20:48:52.569Z,56.82
2018-05-13T20:51:20.022Z,57.48
2018-05-13T20:53:47.419Z,57.08
2018-05-13T20:56:14.854Z,57.90
2018-05-13T20:58:42.303Z,57.81
2018-05-13T21:01:09.770Z,58.09
2018-05-13T21:03:37.204Z,57.82
2018-05-13T21:06:04.679Z,57.67
2018-05-13T21:08:33.051Z,58.51
2018-05-13T21:11:01.448Z,58.90
2018-05-13T21:13:28.872Z,58.86
2018-05-13T21:15:56.333Z,58.77
2018-05-13T21:18:23.763Z,58.57
2018-05-13T21:20:51.207Z,58.63
2018-05-13T21:23:19.632Z,59.08
2018-05-13T21:25:47.076Z,59.06
2018-05-13T21:28:14.494Z,59.20
2018-05-13T21:30:41.935Z,59.15
2018-05-13T21:33:09.363Z,58.77
2018-05-13T21:35:40.635Z,58.85
2018-05-13T21:38:08.779Z,59.57
2018-05-13T21:40:36.239Z,59.56
2018-05-13T21:43:03.654Z,58.85
2018-05-13T21:45:31.152Z,59.97
2018-05-13T21:47:58.582Z,59.37
2018-05-13T21:50:26.058Z,60.05
2018-05-13T21:52:53.539Z,60.02
2018-05-13T21:55:20.964Z,59.66
2018-05-13T21:57:48.408Z,59.22
2018-05-13T22:00:15.824Z,59.24
2018-05-13T22:02:43.266Z,59.92
2018-05-13T22:05:10.692Z,59.77
2018-05-13T22:07:38.134Z,59.46
2018-05-13T22:10:05.548Z,59.24
2018-05-13T22:12:33.002Z,60.04
2018-05-13T22:15:00.420Z,60.56
2018-05-13T22:17:27.861Z,59.78
2018-05-13T22:19:55.294Z,59.86
2018-05-13T22:22:22.745Z,60.17
2018-05-13T22:24:51.039Z,60.24
2018-05-13T22:27:18.475Z,60.61
2018-05-13T22:29:46.889Z,60.75
2018-05-13T22:32:15.321Z,60.93
2018-05-13T22:34:43.737Z,60.90
2018-05-13T22:37:15.594Z,61.28
2018-05-13T22:42:41.916Z,61.82
2018-05-13T22:45:20.342Z,61.88
2018-05-13T22:47:48.043Z,62.37
2018-05-13T22:50:20.195Z,62.19
2018-05-13T22:52:48.750Z,62.81
2018-05-13T22:55:20.214Z,62.37
2018-05-13T22:57:47.828Z,62.81
2018-05-13T23:00:15.344Z,62.11
2018-05-13T23:02:42.996Z,62.37
2018-05-13T23:05:11.517Z,62.45
2018-05-13T23:07:38.979Z,62.85
